Time;durP1;ratioP1;P1;durP2;ratioP2;P2;SDS_P1;SDS_P2;PMS_P1;PMS_P2;Temp;Humidity;BMP_temperature;BMP_pressure;BME280_temperature;BME280_humidity;BME280_pressure;Samples;Min_cycle;Max_cycle;Signal;HPM_P1;HPM_P2
2022/11/20 00:01:22;;;;;;;9.20;4.80;;;6.80;99.90;;;;;;5016783;28;20105;-82
2022/11/20 00:03:48;;;;;;;9.68;5.22;;;6.80;99.90;;;;;;5010606;28;20026;-82
2022/11/20 00:06:17;;;;;;;9.07;5.03;;;6.80;99.90;;;;;;5023705;28;20100;-82
2022/11/20 00:08:43;;;;;;;9.30;4.40;;;6.80;99.90;;;;;;5009555;28;20049;-82
2022/11/20 00:11:17;;;;;;;8.75;4.93;;;6.80;99.90;;;;;;5007319;28;20026;-82
2022/11/20 00:13:44;;;;;;;9.33;4.90;;;6.80;99.90;;;;;;5026100;28;20120;-82
2022/11/20 00:16:11;;;;;;;10.13;4.95;;;6.80;99.90;;;;;;5026587;28;20029;-82
2022/11/20 00:18:37;;;;;;;10.32;5.18;;;6.80;99.90;;;;;;5007311;28;20233;-82
2022/11/20 00:21:11;;;;;;;9.33;4.90;;;6.80;99.90;;;;;;5024463;28;20033;-82
2022/11/20 00:23:37;;;;;;;10.40;5.30;;;6.80;99.90;;;;;;5027835;28;20279;-82
2022/11/20 00:26:07;;;;;;;9.18;5.10;;;6.80;99.90;;;;;;5021855;28;20032;-82
2022/11/20 00:28:33;;;;;;;10.25;5.47;;;6.80;99.90;;;;;;5044503;28;20053;-82
2022/11/20 00:31:09;;;;;;;10.67;5.07;;;6.80;99.90;;;;;;5019755;28;20109;-82
2022/11/20 00:33:34;;;;;;;8.85;4.72;;;6.80;99.90;;;;;;5005499;28;20111;-82
2022/11/20 00:36:05;;;;;;;8.73;4.80;;;6.80;99.90;;;;;;5001289;28;20540;-82
2022/11/20 00:38:31;;;;;;;10.55;4.78;;;6.80;99.90;;;;;;5028434;28;20122;-82
2022/11/20 00:40:58;;;;;;;9.30;4.93;;;6.80;99.90;;;;;;5020945;28;20041;-82
2022/11/20 00:43:25;;;;;;;9.52;4.88;;;6.80;99.90;;;;;;5019959;28;20203;-82
2022/11/20 00:45:55;;;;;;;9.30;4.88;;;6.80;99.90;;;;;;5051033;28;20516;-82
2022/11/20 00:48:21;;;;;;;8.70;4.73;;;6.80;99.90;;;;;;5015796;28;20142;-82
2022/11/20 00:50:46;;;;;;;9.25;5.07;;;6.80;99.90;;;;;;5022981;28;20021;-82
2022/11/20 00:53:12;;;;;;;8.47;4.60;;;6.80;99.90;;;;;;5027446;28;20758;-82
2022/11/20 00:55:38;;;;;;;9.85;5.00;;;6.80;99.90;;;;;;5023935;28;20041;-82
2022/11/20 00:58:03;;;;;;;8.77;5.00;;;6.80;99.90;;;;;;5016030;28;20128;-82
2022/11/20 01:00:29;;;;;;;9.00;4.80;;;6.80;99.90;;;;;;5026715;28;20029;-82
2022/11/20 01:02:56;;;;;;;10.05;4.72;;;6.90;99.90;;;;;;5004523;28;20106;-82
2022/11/20 01:05:21;;;;;;;9.57;5.03;;;6.80;99.90;;;;;;5027382;28;20780;-82
2022/11/20 01:07:47;;;;;;;10.23;5.30;;;6.90;99.90;;;;;;5034994;28;20040;-82
2022/11/20 01:10:13;;;;;;;8.47;4.87;;;6.90;99.90;;;;;;5030861;28;20030;-82
2022/11/20 01:12:38;;;;;;;9.27;4.57;;;6.80;99.90;;;;;;5031474;28;20281;-82
2022/11/20 01:15:04;;;;;;;9.30;5.10;;;6.90;99.90;;;;;;5012425;28;20044;-82
2022/11/20 01:17:31;;;;;;;9.50;4.90;;;6.90;99.90;;;;;;5008646;28;20040;-82
2022/11/20 01:19:57;;;;;;;9.85;5.30;;;6.90;99.90;;;;;;5059665;28;20016;-82
2022/11/20 01:22:23;;;;;;;7.80;4.57;;;6.90;99.90;;;;;;4990628;28;20511;-82
2022/11/20 01:24:48;;;;;;;9.38;4.90;;;6.90;99.90;;;;;;5038655;28;20488;-82
2022/11/20 01:27:14;;;;;;;8.77;4.73;;;6.80;99.90;;;;;;5024998;28;20017;-82
2022/11/20 01:29:39;;;;;;;8.77;4.87;;;6.90;99.90;;;;;;5019450;28;20051;-82
2022/11/20 01:32:05;;;;;;;9.67;4.83;;;6.80;99.90;;;;;;5018997;28;20314;-82
2022/11/20 01:34:31;;;;;;;8.87;4.63;;;6.80;99.90;;;;;;5016901;28;20029;-82
2022/11/20 01:36:56;;;;;;;9.25;4.70;;;6.90;99.90;;;;;;5029057;28;20052;-82
2022/11/20 01:39:25;;;;;;;9.80;4.90;;;6.90;99.90;;;;;;5001791;28;20253;-82
2022/11/20 01:44:51;;;;;;;9.52;5.00;;;6.90;99.90;;;;;;5014529;28;20040;-82
2022/11/20 01:47:23;;;;;;;8.85;4.47;;;6.90;99.90;;;;;;5042257;28;20030;-82
2022/11/20 01:50:05;;;;;;;9.23;4.60;;;6.90;99.90;;;;;;5019436;28;20038;-82
2022/11/20 01:52:38;;;;;;;8.33;4.57;;;6.90;99.90;;;;;;5022110;28;20025;-82
2022/11/20 01:55:08;;;;;;;8.25;4.88;;;6.80;99.90;;;;;;4996919;28;20051;-82
2022/11/20 01:57:36;;;;;;;8.88;4.97;;;6.80;99.90;;;;;;5029079;28;20040;-82
2022/11/20 02:00:06;;;;;;;10.82;5.03;;;6.80;99.90;;;;;;5022676;28;20887;-82
2022/11/20 02:02:32;;;;;;;9.07;4.95;;;6.80;99.90;;;;;;5037393;28;20022;-82
2022/11/20 02:05:04;;;;;;;10.07;4.80;;;6.80;99.90;;;;;;5020631;28;20062;-82
2022/11/20 02:07:30;;;;;;;12.10;4.97;;;6.80;99.90;;;;;;5041753;28;20021;-82
2022/11/20 02:09:56;;;;;;;10.50;5.18;;;6.80;99.90;;;;;;5010297;28;20021;-82
2022/11/20 02:15:06;;;;;;;9.10;5.10;;;6.80;99.90;;;;;;5049031;28;20040;-82
2022/11/20 02:17:31;;;;;;;9.40;4.90;;;6.80;99.90;;;;;;5017436;28;20184;-82
2022/11/20 02:19:57;;;;;;;9.33;4.93;;;6.80;99.90;;;;;;5014047;28;20473;-82
2022/11/20 02:22:39;;;;;;;9.73;5.20;;;6.80;99.90;;;;;;5024603;28;20025;-82
2022/11/20 02:25:06;;;;;;;9.63;4.78;;;6.70;99.90;;;;;;5025134;28;20432;-81
2022/11/20 02:27:32;;;;;;;9.97;5.27;;;6.70;99.90;;;;;;5028265;28;20041;-82
2022/11/20 02:30:03;;;;;;;9.15;4.50;;;6.70;99.90;;;;;;5034699;28;20103;-82
2022/11/20 02:32:32;;;;;;;9.57;4.90;;;6.70;99.90;;;;;;5009940;28;20472;-82
2022/11/20 02:34:58;;;;;;;9.45;5.28;;;6.70;99.90;;;;;;5023474;28;20365;-82
2022/11/20 02:37:30;;;;;;;9.47;5.00;;;6.70;99.90;;;;;;5032969;28;20658;-82
2022/11/20 02:39:56;;;;;;;9.00;4.72;;;6.60;99.90;;;;;;5025632;28;20119;-82
2022/11/20 02:42:21;;;;;;;9.90;5.10;;;6.60;99.90;;;;;;5039513;28;20037;-82
2022/11/20 02:44:47;;;;;;;10.87;5.20;;;6.60;99.90;;;;;;5034616;28;20599;-83
2022/11/20 02:47:13;;;;;;;8.37;4.40;;;6.50;99.90;;;;;;5021613;28;20539;-81
2022/11/20 02:49:38;;;;;;;9.45;4.82;;;6.50;99.90;;;;;;5032995;28;20041;-82
2022/11/20 02:52:04;;;;;;;9.53;4.70;;;6.50;99.90;;;;;;5017355;28;20365;-82
2022/11/20 02:54:29;;;;;;;9.60;4.90;;;6.50;99.90;;;;;;5031883;28;20551;-82
2022/11/20 02:56:55;;;;;;;10.37;5.53;;;6.50;99.90;;;;;;5019241;28;20563;-82
2022/11/20 02:59:22;;;;;;;9.90;5.05;;;6.50;99.90;;;;;;5032466;28;20068;-82
2022/11/20 03:01:47;;;;;;;9.73;4.57;;;6.50;99.90;;;;;;5014490;28;20130;-82
2022/11/20 03:04:13;;;;;;;10.63;5.43;;;6.50;99.90;;;;;;5033352;28;20025;-82
2022/11/20 03:06:39;;;;;;;10.53;5.47;;;6.50;99.90;;;;;;5023238;28;20037;-82
2022/11/20 03:09:04;;;;;;;10.13;5.47;;;6.50;99.90;;;;;;5027025;28;20052;-82
2022/11/20 03:11:31;;;;;;;9.67;5.33;;;6.50;99.90;;;;;;5026592;28;20276;-82
2022/11/20 03:13:56;;;;;;;9.93;5.05;;;6.50;99.90;;;;;;5015547;28;20256;-82
2022/11/20 03:16:23;;;;;;;11.77;6.10;;;6.60;99.90;;;;;;5013888;28;20124;-82
2022/11/20 03:18:51;;;;;;;9.95;5.22;;;6.60;99.90;;;;;;5036813;28;20424;-82
2022/11/20 03:21:17;;;;;;;9.77;4.95;;;6.60;99.90;;;;;;5045857;28;20021;-82
2022/11/20 03:23:42;;;;;;;9.60;5.10;;;6.60;99.90;;;;;;5038847;28;20029;-82
2022/11/20 03:26:15;;;;;;;10.97;5.70;;;6.60;99.90;;;;;;5042675;28;20079;-82
2022/11/20 03:28:45;;;;;;;10.23;5.43;;;6.60;99.90;;;;;;5013812;28;20290;-82
2022/11/20 03:31:13;;;;;;;10.02;5.15;;;6.60;99.90;;;;;;5040152;28;20051;-81
2022/11/20 03:33:41;;;;;;;10.63;5.40;;;6.60;99.90;;;;;;5020644;28;20246;-82
2022/11/20 03:36:09;;;;;;;9.65;5.40;;;6.60;99.90;;;;;;5025933;28;20043;-81
2022/11/20 03:38:36;;;;;;;10.63;5.32;;;6.70;99.90;;;;;;5043799;28;20281;-82
2022/11/20 03:41:04;;;;;;;8.57;4.60;;;6.70;99.90;;;;;;5036361;28;20446;-81
2022/11/20 03:43:30;;;;;;;10.48;5.25;;;6.60;99.90;;;;;;5023760;28;20272;-82
2022/11/20 03:45:56;;;;;;;10.10;5.13;;;6.70;99.90;;;;;;5026953;28;20427;-82
2022/11/20 03:48:22;;;;;;;11.80;5.80;;;6.70;99.90;;;;;;5012142;28;20197;-82
2022/11/20 03:50:47;;;;;;;9.83;5.17;;;6.70;99.90;;;;;;5039303;28;20059;-82
2022/11/20 03:53:14;;;;;;;11.05;5.28;;;6.70;99.90;;;;;;5020134;28;20214;-81
2022/11/20 03:55:40;;;;;;;13.35;5.82;;;6.70;99.90;;;;;;5026383;28;20045;-82
2022/11/20 03:58:05;;;;;;;11.50;5.90;;;6.70;99.90;;;;;;5022428;28;20036;-82
2022/11/20 04:00:31;;;;;;;11.17;5.27;;;6.70;99.90;;;;;;5018077;28;20119;-82
2022/11/20 04:03:00;;;;;;;13.47;6.37;;;6.70;99.90;;;;;;5036270;28;20317;-82
2022/11/20 04:05:26;;;;;;;25.85;7.35;;;6.70;99.90;;;;;;5009307;28;20234;-82
2022/11/20 04:07:52;;;;;;;12.00;5.57;;;6.70;99.90;;;;;;5027283;28;20036;-82
2022/11/20 04:10:18;;;;;;;11.35;5.15;;;6.70;99.90;;;;;;5020880;28;20032;-82
2022/11/20 04:12:43;;;;;;;11.53;5.27;;;6.70;99.90;;;;;;5028639;28;20021;-81
2022/11/20 04:15:09;;;;;;;11.23;5.47;;;6.70;99.90;;;;;;5011546;28;20033;-82
2022/11/20 04:17:35;;;;;;;11.83;5.60;;;6.60;99.90;;;;;;5023386;28;20135;-82
2022/11/20 04:20:01;;;;;;;11.80;6.03;;;6.70;99.90;;;;;;5034493;28;20033;-82
2022/11/20 04:22:26;;;;;;;10.93;5.83;;;6.70;99.90;;;;;;5016870;28;20245;-82
2022/11/20 04:24:52;;;;;;;12.57;5.97;;;6.70;99.90;;;;;;5016881;28;20025;-81
2022/11/20 04:27:18;;;;;;;11.90;5.57;;;6.70;99.90;;;;;;5020896;28;20504;-82
2022/11/20 04:29:43;;;;;;;11.23;5.50;;;6.70;99.90;;;;;;5032524;28;20394;-82
2022/11/20 04:32:09;;;;;;;12.30;5.83;;;6.70;99.90;;;;;;5005175;28;20401;-82
2022/11/20 04:34:35;;;;;;;12.15;5.90;;;6.70;99.90;;;;;;5035412;28;20017;-81
2022/11/20 04:37:00;;;;;;;11.40;5.50;;;6.70;99.90;;;;;;5017628;28;20013;-82
2022/11/20 04:39:26;;;;;;;10.05;5.07;;;6.70;99.90;;;;;;5024285;28;20107;-82
2022/11/20 04:42:28;;;;;;;12.43;5.53;;;6.70;99.90;;;;;;5033046;28;20344;-82
2022/11/20 04:44:37;;;;;;;14.60;5.60;;;6.70;99.90;;;;;;5021604;28;20070;-82
2022/11/20 04:47:03;;;;;;;12.98;5.60;;;6.70;99.90;;;;;;5002128;28;20072;-82
2022/11/20 04:49:29;;;;;;;13.33;5.83;;;6.80;99.90;;;;;;5021099;28;20029;-82
2022/11/20 04:51:54;;;;;;;14.45;6.50;;;6.70;99.90;;;;;;5019210;28;20058;-81
2022/11/20 04:54:20;;;;;;;12.23;5.63;;;6.70;99.90;;;;;;5013100;28;20057;-82
2022/11/20 04:56:48;;;;;;;11.40;5.10;;;6.70;99.90;;;;;;5013269;28;20031;-81
2022/11/20 04:59:13;;;;;;;13.52;6.00;;;6.70;99.90;;;;;;5021436;28;20418;-82
2022/11/20 05:01:39;;;;;;;11.73;5.43;;;6.70;99.90;;;;;;5016035;28;20045;-81
2022/11/20 05:04:05;;;;;;;11.67;5.17;;;6.70;99.90;;;;;;5019351;28;20158;-81
2022/11/20 05:06:31;;;;;;;11.45;5.25;;;6.70;99.90;;;;;;5021600;28;20466;-81
2022/11/20 05:08:57;;;;;;;12.35;5.45;;;6.70;99.90;;;;;;5012602;28;20037;-82
2022/11/20 05:11:23;;;;;;;12.63;5.55;;;6.60;99.90;;;;;;5035114;28;20112;-81
2022/11/20 05:13:50;;;;;;;12.77;5.60;;;6.60;99.90;;;;;;5020773;28;20047;-81
2022/11/20 05:16:23;;;;;;;11.98;5.55;;;6.60;99.90;;;;;;5027063;28;20026;-81
2022/11/20 05:18:50;;;;;;;12.60;5.32;;;6.60;99.90;;;;;;5058137;28;20025;-81
2022/11/20 05:21:16;;;;;;;10.95;5.15;;;6.60;99.90;;;;;;5012684;28;20179;-82
2022/11/20 05:23:43;;;;;;;11.40;5.30;;;6.60;99.90;;;;;;5020762;28;20032;-81
2022/11/20 05:26:17;;;;;;;13.20;5.50;;;6.60;99.90;;;;;;5052240;28;20477;-82
2022/11/20 05:28:43;;;;;;;12.73;5.35;;;6.60;99.90;;;;;;5045550;28;20113;-81
2022/11/20 05:31:15;;;;;;;12.07;6.00;;;6.60;99.90;;;;;;4988192;28;20021;-81
2022/11/20 05:33:42;;;;;;;13.00;5.95;;;6.60;99.90;;;;;;5028301;28;20474;-81
2022/11/20 05:36:09;;;;;;;13.55;5.80;;;6.60;99.90;;;;;;5024202;28;20478;-81
2022/11/20 05:38:34;;;;;;;12.17;5.63;;;6.60;99.90;;;;;;5024202;28;20091;-81
2022/11/20 05:41:08;;;;;;;12.00;5.78;;;6.60;99.90;;;;;;5022473;28;20029;-81
2022/11/20 05:43:35;;;;;;;13.27;6.05;;;6.60;99.90;;;;;;5041226;28;20416;-82
2022/11/20 05:46:01;;;;;;;11.20;5.05;;;6.60;99.90;;;;;;5004198;28;20037;-81
2022/11/20 05:48:27;;;;;;;14.53;6.07;;;6.70;99.90;;;;;;5011012;28;20056;-81
2022/11/20 05:50:53;;;;;;;11.98;5.93;;;6.70;99.90;;;;;;5028153;28;20052;-81
2022/11/20 05:53:18;;;;;;;11.70;5.73;;;6.70;99.90;;;;;;5024180;28;20026;-81
2022/11/20 05:55:44;;;;;;;13.80;5.85;;;6.70;99.90;;;;;;5020126;28;20524;-81
2022/11/20 05:58:10;;;;;;;12.00;5.37;;;6.70;99.90;;;;;;5016764;28;20036;-82
2022/11/20 06:00:35;;;;;;;11.57;5.43;;;6.70;99.90;;;;;;5016066;28;20137;-81
2022/11/20 06:03:01;;;;;;;12.40;5.97;;;6.70;99.90;;;;;;4977674;28;20032;-81
2022/11/20 06:05:27;;;;;;;15.07;5.95;;;6.70;99.90;;;;;;5025274;28;20029;-81
2022/11/20 06:07:53;;;;;;;13.17;5.97;;;6.70;99.90;;;;;;5011874;28;20318;-81
2022/11/20 06:10:18;;;;;;;11.55;5.28;;;6.70;99.90;;;;;;5040092;28;20029;-82
2022/11/20 06:12:44;;;;;;;11.90;5.33;;;6.60;99.90;;;;;;5030435;28;20094;-82
2022/11/20 06:15:10;;;;;;;13.75;5.43;;;6.60;99.90;;;;;;5014827;28;20494;-81
2022/11/20 06:17:35;;;;;;;10.50;5.00;;;6.60;99.90;;;;;;5016092;28;20117;-81
2022/11/20 06:20:01;;;;;;;14.13;5.82;;;6.60;99.90;;;;;;5007470;28;20420;-81
2022/11/20 06:22:26;;;;;;;13.03;6.03;;;6.60;99.90;;;;;;5013272;28;23252;-81
2022/11/20 06:24:52;;;;;;;12.85;5.80;;;6.50;99.90;;;;;;5018719;28;20028;-81
2022/11/20 06:27:18;;;;;;;11.90;5.70;;;6.50;99.90;;;;;;5029124;28;20037;-82
2022/11/20 06:29:43;;;;;;;13.63;5.43;;;6.40;99.90;;;;;;5034774;28;20302;-81
2022/11/20 06:32:09;;;;;;;12.20;5.55;;;6.40;99.90;;;;;;4991380;28;20603;-82
2022/11/20 06:34:34;;;;;;;11.17;4.77;;;6.30;99.90;;;;;;5016761;28;20029;-81
2022/11/20 06:37:00;;;;;;;12.93;6.15;;;6.30;99.90;;;;;;5029772;28;20029;-81
2022/11/20 06:39:26;;;;;;;13.47;6.07;;;6.20;99.90;;;;;;5007923;28;20298;-81
2022/11/20 06:41:51;;;;;;;13.57;5.90;;;6.20;99.90;;;;;;5027059;28;20025;-81
2022/11/20 06:44:17;;;;;;;11.43;5.20;;;6.10;99.90;;;;;;5004149;28;20562;-81
2022/11/20 06:46:43;;;;;;;12.37;6.00;;;6.20;99.90;;;;;;5043295;28;20052;-81
2022/11/20 06:49:08;;;;;;;11.38;5.38;;;6.10;99.90;;;;;;5004248;28;20052;-81
2022/11/20 06:51:34;;;;;;;13.00;5.67;;;6.10;99.90;;;;;;5030190;28;20041;-81
2022/11/20 06:54:00;;;;;;;13.25;5.97;;;6.10;99.90;;;;;;5008344;28;20044;-81
2022/11/20 06:56:26;;;;;;;13.87;6.10;;;6.10;99.90;;;;;;5023907;28;20103;-81
2022/11/20 06:58:52;;;;;;;13.75;5.80;;;6.20;99.90;;;;;;4996661;28;20491;-81
2022/11/20 07:01:17;;;;;;;13.70;6.20;;;6.20;99.90;;;;;;5023327;28;20418;-81
2022/11/20 07:03:43;;;;;;;13.95;6.05;;;6.20;99.90;;;;;;5014178;28;20017;-81
2022/11/20 07:06:09;;;;;;;13.37;6.07;;;6.30;99.90;;;;;;5000256;28;20417;-81
2022/11/20 07:08:35;;;;;;;13.50;6.35;;;6.30;99.90;;;;;;5053994;28;20398;-81
2022/11/20 07:11:03;;;;;;;15.60;6.10;;;6.30;99.90;;;;;;5009820;28;20552;-81
2022/11/20 07:13:29;;;;;;;14.80;6.50;;;6.40;99.90;;;;;;5015759;28;20022;-81
2022/11/20 07:15:58;;;;;;;14.30;6.45;;;6.40;99.90;;;;;;5031599;28;20852;-81
2022/11/20 07:18:24;;;;;;;13.35;6.05;;;6.40;99.90;;;;;;5029654;28;20026;-81
2022/11/20 07:20:49;;;;;;;14.60;5.97;;;6.40;99.90;;;;;;4999685;28;20033;-81
2022/11/20 07:23:15;;;;;;;14.15;6.30;;;6.40;99.90;;;;;;5039898;28;20279;-81
2022/11/20 07:25:41;;;;;;;14.27;6.50;;;6.50;99.90;;;;;;5015746;28;20104;-81
2022/11/20 07:28:06;;;;;;;15.35;6.57;;;6.50;99.90;;;;;;5010671;28;20041;-81
2022/11/20 07:30:32;;;;;;;13.63;5.77;;;6.50;99.90;;;;;;5031592;28;20036;-81
2022/11/20 07:32:58;;;;;;;13.23;6.37;;;6.60;99.90;;;;;;5022036;28;20533;-81
2022/11/20 07:35:24;;;;;;;15.60;6.47;;;6.60;99.90;;;;;;5016892;28;20242;-81
2022/11/20 07:37:50;;;;;;;13.10;5.72;;;6.60;99.90;;;;;;5017073;28;20065;-81
2022/11/20 07:40:17;;;;;;;13.43;6.18;;;6.60;99.90;;;;;;5008327;28;20362;-81
2022/11/20 07:42:53;;;;;;;12.97;6.50;;;6.60;99.90;;;;;;5032141;28;20071;-81
2022/11/20 07:45:20;;;;;;;13.90;6.10;;;6.70;99.90;;;;;;5019673;28;20690;-81
2022/11/20 07:47:46;;;;;;;12.18;5.28;;;6.70;99.90;;;;;;5054129;28;20485;-81
2022/11/20 07:50:13;;;;;;;14.23;6.38;;;6.70;99.90;;;;;;5025822;28;20248;-81
2022/11/20 07:52:39;;;;;;;13.10;5.80;;;6.80;99.90;;;;;;5002463;28;20118;-81
2022/11/20 07:55:05;;;;;;;14.93;6.53;;;6.80;99.90;;;;;;5021124;28;20459;-81
2022/11/20 07:57:31;;;;;;;15.07;6.50;;;6.80;99.90;;;;;;5009135;28;20396;-81
2022/11/20 07:59:56;;;;;;;13.13;5.57;;;6.90;99.90;;;;;;5031080;28;20058;-81
2022/11/20 08:02:22;;;;;;;13.27;5.82;;;6.90;99.90;;;;;;5035845;28;20650;-81
2022/11/20 08:04:48;;;;;;;14.17;6.37;;;6.90;99.90;;;;;;5017335;28;20037;-81
2022/11/20 08:07:13;;;;;;;13.63;6.47;;;6.90;99.90;;;;;;4997582;28;21621;-81
2022/11/20 08:09:39;;;;;;;14.50;6.63;;;6.90;99.90;;;;;;5023584;28;20060;-81
2022/11/20 08:14:49;;;;;;;12.43;5.50;;;7.00;99.90;;;;;;5020925;28;20397;-81
2022/11/20 08:17:15;;;;;;;12.88;6.22;;;7.10;99.90;;;;;;5010417;28;20175;-81
2022/11/20 08:19:41;;;;;;;13.60;6.17;;;7.10;99.90;;;;;;5015584;28;20039;-81
2022/11/20 08:22:06;;;;;;;11.48;5.45;;;7.10;99.90;;;;;;5022716;28;20055;-81
2022/11/20 08:24:32;;;;;;;13.13;5.70;;;7.20;99.90;;;;;;4997582;28;20020;-81
2022/11/20 08:27:01;;;;;;;13.30;6.43;;;7.20;99.90;;;;;;5015110;28;20120;-81
2022/11/20 08:29:27;;;;;;;14.50;6.65;;;7.20;99.90;;;;;;5007562;28;20065;-81
2022/11/20 08:31:52;;;;;;;13.82;6.22;;;7.30;99.90;;;;;;5011523;28;20099;-81
2022/11/20 08:34:18;;;;;;;14.53;5.83;;;7.30;99.90;;;;;;5020221;28;20052;-81
2022/11/20 08:36:44;;;;;;;14.25;6.38;;;7.30;99.90;;;;;;5008996;28;20033;-81
2022/11/20 08:39:13;;;;;;;13.57;5.50;;;7.40;99.90;;;;;;5002612;28;20057;-81
2022/11/20 08:41:39;;;;;;;14.57;6.03;;;7.40;99.90;;;;;;5016650;28;20029;-81
2022/11/20 08:44:07;;;;;;;15.40;6.03;;;7.40;99.90;;;;;;4995553;28;20015;-81
2022/11/20 08:46:39;;;;;;;12.90;5.47;;;7.50;99.90;;;;;;5010678;28;20505;-81
2022/11/20 08:49:06;;;;;;;14.88;5.85;;;7.50;99.90;;;;;;5018240;28;20028;-82
2022/11/20 08:51:32;;;;;;;14.48;5.57;;;7.60;99.90;;;;;;5014215;28;20017;-81
2022/11/20 08:53:57;;;;;;;14.75;6.25;;;7.60;99.90;;;;;;5020801;28;20202;-81
2022/11/20 08:56:23;;;;;;;15.50;6.73;;;7.60;99.90;;;;;;4991407;28;20103;-81
2022/11/20 08:58:52;;;;;;;13.07;6.15;;;7.60;99.90;;;;;;4996980;28;20924;-81
2022/11/20 09:01:18;;;;;;;15.15;6.15;;;7.60;99.90;;;;;;5051191;28;20026;-81
2022/11/20 09:03:44;;;;;;;15.27;6.30;;;7.70;99.90;;;;;;5007984;28;20017;-81
2022/11/20 09:06:10;;;;;;;14.67;6.53;;;7.70;99.90;;;;;;5021325;28;20029;-81
2022/11/20 09:08:36;;;;;;;15.55;6.85;;;7.80;99.90;;;;;;5029034;28;20017;-81
2022/11/20 09:11:02;;;;;;;13.50;5.60;;;7.80;99.90;;;;;;4999784;28;20425;-81
2022/11/20 09:13:29;;;;;;;16.27;6.43;;;7.80;99.90;;;;;;5039843;28;20652;-81
2022/11/20 09:16:15;;;;;;;16.23;6.20;;;7.80;99.90;;;;;;5006522;28;20052;-81
2022/11/20 09:18:40;;;;;;;17.52;6.60;;;7.80;99.90;;;;;;5012523;28;20500;-81
2022/11/20 09:21:13;;;;;;;16.07;5.90;;;7.90;99.90;;;;;;5028074;28;20080;-82
2022/11/20 09:23:39;;;;;;;16.67;6.63;;;7.90;99.90;;;;;;5032116;28;20040;-81
2022/11/20 09:26:13;;;;;;;15.52;6.07;;;7.90;99.90;;;;;;4993675;28;20567;-80
2022/11/20 09:28:39;;;;;;;15.85;6.03;;;7.90;99.90;;;;;;5041175;28;20051;-81
2022/11/20 09:31:06;;;;;;;17.10;6.67;;;8.00;99.90;;;;;;5039481;28;20477;-81
2022/11/20 09:33:32;;;;;;;16.02;6.05;;;8.00;99.90;;;;;;5001101;28;20040;-81
2022/11/20 09:36:00;;;;;;;18.05;6.82;;;8.00;99.90;;;;;;5015512;28;22065;-81
2022/11/20 09:38:26;;;;;;;16.70;6.57;;;8.00;99.90;;;;;;5010501;28;20025;-81
2022/11/20 09:41:05;;;;;;;16.20;6.30;;;8.10;99.90;;;;;;5009801;28;20798;-81
2022/11/20 09:43:31;;;;;;;18.02;6.10;;;8.10;99.90;;;;;;5009155;28;20044;-81
2022/11/20 09:46:35;;;;;;;14.73;5.70;;;8.10;99.90;;;;;;5017709;28;20026;-81
2022/11/20 09:49:16;;;;;;;14.65;5.03;;;8.20;99.90;;;;;;4975700;28;20049;-81
2022/11/20 09:51:59;;;;;;;15.57;5.72;;;8.20;99.90;;;;;;5005243;28;20239;-82
2022/11/20 09:54:35;;;;;;;16.88;6.00;;;8.30;99.90;;;;;;5033436;28;20124;-81
2022/11/20 09:57:14;;;;;;;18.90;6.63;;;8.30;99.90;;;;;;5006413;28;20018;-81
2022/11/20 09:59:53;;;;;;;16.90;6.70;;;8.30;99.90;;;;;;5020391;28;20033;-82
2022/11/20 10:02:45;;;;;;;17.45;7.07;;;8.40;99.90;;;;;;5041483;28;20101;-81
2022/11/20 10:05:43;;;;;;;17.08;6.18;;;8.40;99.90;;;;;;5032950;28;20555;-81
2022/11/20 10:08:23;;;;;;;13.63;5.10;;;8.40;99.90;;;;;;5032156;28;20596;-81
2022/11/20 10:10:52;;;;;;;16.03;5.43;;;8.40;99.90;;;;;;5004857;28;20425;-81
2022/11/20 10:13:20;;;;;;;17.85;6.22;;;8.50;99.90;;;;;;5026287;28;20025;-81
2022/11/20 10:15:52;;;;;;;16.50;6.35;;;8.50;99.90;;;;;;5022484;28;20117;-81
2022/11/20 10:18:34;;;;;;;17.92;6.07;;;8.50;99.90;;;;;;5009542;28;20041;-81
2022/11/20 10:21:24;;;;;;;17.42;6.82;;;8.60;99.90;;;;;;5036106;28;20337;-81
2022/11/20 10:24:06;;;;;;;18.70;6.57;;;8.60;99.90;;;;;;5033694;28;20131;-81
2022/11/20 10:26:46;;;;;;;17.67;6.53;;;8.60;99.90;;;;;;5008367;28;20029;-81
2022/11/20 10:29:21;;;;;;;17.38;6.93;;;8.70;99.90;;;;;;5027072;28;20116;-81
2022/11/20 10:31:54;;;;;;;13.45;5.43;;;8.70;99.90;;;;;;5053895;28;20060;-81
2022/11/20 10:34:20;;;;;;;16.40;5.95;;;8.70;99.90;;;;;;5028085;28;20302;-81
2022/11/20 10:37:09;;;;;;;19.00;6.53;;;8.80;99.90;;;;;;5039340;28;20068;-81
2022/11/20 10:39:59;;;;;;;15.93;6.38;;;8.80;99.90;;;;;;5024530;28;20278;-81
2022/11/20 10:42:56;;;;;;;17.50;6.05;;;8.90;99.90;;;;;;5040805;28;20323;-81
2022/11/20 10:45:24;;;;;;;15.80;5.83;;;8.90;99.90;;;;;;5058729;28;20025;-81
2022/11/20 10:47:56;;;;;;;17.25;6.22;;;9.00;99.90;;;;;;5015800;28;20426;-81
2022/11/20 10:50:22;;;;;;;18.52;6.97;;;9.10;99.90;;;;;;5019871;28;20405;-81
2022/11/20 10:53:06;;;;;;;21.13;5.88;;;9.10;99.90;;;;;;5020019;28;20025;-81
2022/11/20 10:55:46;;;;;;;20.23;7.13;;;9.20;99.90;;;;;;5033844;28;20049;-81
2022/11/20 10:58:21;;;;;;;15.20;5.13;;;9.30;99.90;;;;;;5025666;28;20418;-81
2022/11/20 11:00:47;;;;;;;15.73;5.93;;;9.30;99.90;;;;;;5025576;28;20349;-81
2022/11/20 11:03:30;;;;;;;14.27;6.20;;;9.40;99.90;;;;;;5033187;28;20547;-81
2022/11/20 11:06:34;;;;;;;13.93;5.20;;;9.50;99.90;;;;;;5014801;28;20117;-81
2022/11/20 11:09:08;;;;;;;13.93;5.40;;;9.60;99.90;;;;;;5012565;28;20690;-81
2022/11/20 11:11:34;;;;;;;12.65;5.07;;;9.70;99.90;;;;;;5030227;28;20241;-81
2022/11/20 11:14:08;;;;;;;14.18;5.60;;;9.80;99.90;;;;;;5006666;28;20033;-81
2022/11/20 11:16:34;;;;;;;13.03;4.90;;;9.90;99.90;;;;;;5031730;28;20529;-81
2022/11/20 11:19:11;;;;;;;14.82;5.85;;;9.90;99.90;;;;;;5029974;28;20035;-81
2022/11/20 11:21:43;;;;;;;15.00;5.30;;;10.00;99.90;;;;;;5011609;28;20150;-81
2022/11/20 11:24:20;;;;;;;13.98;5.65;;;10.10;99.90;;;;;;5031697;28;20028;-81
2022/11/20 11:26:59;;;;;;;13.30;5.68;;;10.20;99.90;;;;;;5033353;28;20485;-81
2022/11/20 11:29:29;;;;;;;14.60;5.43;;;10.20;99.90;;;;;;5024293;28;20238;-81
2022/11/20 11:32:21;;;;;;;12.32;4.68;;;10.20;99.90;;;;;;5031498;28;20657;-81
2022/11/20 11:35:18;;;;;;;11.55;4.88;;;10.30;99.90;;;;;;5031759;28;20048;-81
2022/11/20 11:37:46;;;;;;;11.55;5.00;;;10.40;99.90;;;;;;5018343;28;20026;-81
2022/11/20 11:40:13;;;;;;;12.98;5.55;;;10.40;99.90;;;;;;5050095;28;20249;-81
2022/11/20 11:42:44;;;;;;;12.07;5.27;;;10.40;99.90;;;;;;5021441;28;20087;-81
2022/11/20 11:45:17;;;;;;;12.35;5.32;;;10.50;99.90;;;;;;5004538;28;20029;-81
2022/11/20 11:47:42;;;;;;;12.93;5.88;;;10.60;99.90;;;;;;5031328;28;20032;-81
2022/11/20 11:50:08;;;;;;;12.93;5.53;;;10.60;99.90;;;;;;5003150;28;20029;-81
2022/11/20 11:52:58;;;;;;;14.98;5.82;;;10.70;99.90;;;;;;4997402;28;20087;-81
2022/11/20 11:55:33;;;;;;;13.47;4.83;;;10.70;99.90;;;;;;5022799;28;20053;-81
2022/11/20 11:58:20;;;;;;;11.43;4.55;;;10.80;99.90;;;;;;4999115;28;20022;-80
2022/11/20 12:01:05;;;;;;;9.88;4.72;;;10.80;99.90;;;;;;5002818;28;20220;-80
2022/11/20 12:03:41;;;;;;;10.50;4.57;;;10.80;99.90;;;;;;5003461;28;20708;-80
2022/11/20 12:06:26;;;;;;;9.25;4.45;;;10.90;99.90;;;;;;5025538;28;20035;-80
2022/11/20 12:09:08;;;;;;;9.57;4.30;;;11.00;99.90;;;;;;5012085;28;20397;-80
2022/11/20 12:11:56;;;;;;;8.32;3.67;;;11.00;99.90;;;;;;5003355;28;20357;-82
2022/11/20 12:14:35;;;;;;;7.03;3.60;;;11.10;99.90;;;;;;5026080;28;20564;-81
2022/11/20 12:17:02;;;;;;;6.90;3.58;;;11.10;99.90;;;;;;5020964;28;20029;-81
2022/11/20 12:19:34;;;;;;;5.90;2.83;;;11.10;99.90;;;;;;5007827;28;20072;-81
2022/11/20 12:22:21;;;;;;;6.87;2.60;;;11.10;99.90;;;;;;5026797;28;20044;-80
2022/11/20 12:25:00;;;;;;;4.03;2.40;;;11.10;99.90;;;;;;5016847;28;20112;-82
2022/11/20 12:27:52;;;;;;;3.88;1.80;;;11.10;99.90;;;;;;5013025;28;20073;-82
2022/11/20 12:30:20;;;;;;;3.75;1.85;;;11.20;99.90;;;;;;5018460;28;20496;-81
2022/11/20 12:33:29;;;;;;;2.85;1.50;;;11.10;99.90;;;;;;4989617;28;20281;-81
2022/11/20 12:36:16;;;;;;;2.27;1.47;;;11.10;99.90;;;;;;5045441;28;20268;-81
2022/11/20 12:39:00;;;;;;;2.20;1.40;;;11.10;99.90;;;;;;5016673;28;20040;-81
2022/11/20 12:45:11;;;;;;;2.60;1.35;;;10.90;99.90;;;;;;4996352;28;20117;-82
2022/11/20 12:48:14;;;;;;;3.17;1.63;;;10.90;99.90;;;;;;5001806;28;20615;-82
2022/11/20 12:51:05;;;;;;;2.90;1.30;;;10.80;99.90;;;;;;5007965;28;20021;-83
2022/11/20 12:53:36;;;;;;;2.47;1.20;;;10.70;99.90;;;;;;5019994;28;20149;-83
2022/11/20 12:56:12;;;;;;;2.67;1.50;;;10.60;99.90;;;;;;5017122;28;20168;-83
2022/11/20 12:59:00;;;;;;;2.53;1.42;;;10.60;99.90;;;;;;5046230;28;20041;-83
2022/11/20 13:01:51;;;;;;;2.75;1.25;;;10.50;99.90;;;;;;5021547;28;20045;-84
2022/11/20 13:04:52;;;;;;;2.87;1.33;;;10.40;99.90;;;;;;4993546;28;20136;-84
2022/11/20 13:07:19;;;;;;;2.70;1.17;;;10.40;99.90;;;;;;5007244;28;20554;-84
2022/11/20 13:09:50;;;;;;;2.25;1.30;;;10.40;99.90;;;;;;5018734;28;20429;-84
2022/11/20 13:12:25;;;;;;;1.85;1.20;;;10.30;99.90;;;;;;5009358;28;20032;-82
2022/11/20 13:14:58;;;;;;;3.00;1.20;;;10.30;99.90;;;;;;5017648;28;20456;-83